sensor_id;sensor_type;location;lat;lon;timestamp;temperature;humidity
32524;DHT22;18965;52.242;20.886;2022-07-30T00:01:18;20.30;51.70
32524;DHT22;18965;52.242;20.886;2022-07-30T00:03:54;20.20;51.80
32524;DHT22;18965;52.242;20.886;2022-07-30T00:06:34;20.20;51.70
32524;DHT22;18965;52.242;20.886;2022-07-30T00:09:27;20.20;51.70
32524;DHT22;18965;52.242;20.886;2022-07-30T00:11:53;20.20;51.80
32524;DHT22;18965;52.242;20.886;2022-07-30T00:14:24;20.30;51.90
32524;DHT22;18965;52.242;20.886;2022-07-30T00:17:14;20.20;51.90
32524;DHT22;18965;52.242;20.886;2022-07-30T00:22:54;20.20;51.90
32524;DHT22;18965;52.242;20.886;2022-07-30T00:28:49;20.20;52.10
32524;DHT22;18965;52.242;20.886;2022-07-30T00:34:33;20.10;52.20
32524;DHT22;18965;52.242;20.886;2022-07-30T00:36:59;20.10;52.30
32524;DHT22;18965;52.242;20.886;2022-07-30T00:39:25;20.10;52.30
32524;DHT22;18965;52.242;20.886;2022-07-30T00:42:15;20.10;52.40
32524;DHT22;18965;52.242;20.886;2022-07-30T00:44:47;20.00;52.60
32524;DHT22;18965;52.242;20.886;2022-07-30T00:47:33;20.00;52.60
32524;DHT22;18965;52.242;20.886;2022-07-30T00:50:03;20.00;52.90
32524;DHT22;18965;52.242;20.886;2022-07-30T00:52:35;20.00;52.90
32524;DHT22;18965;52.242;20.886;2022-07-30T00:55:03;20.00;53.00
32524;DHT22;18965;52.242;20.886;2022-07-30T00:57:46;20.00;53.00
32524;DHT22;18965;52.242;20.886;2022-07-30T01:00:15;19.90;53.20
32524;DHT22;18965;52.242;20.886;2022-07-30T01:02:59;19.90;53.30
32524;DHT22;18965;52.242;20.886;2022-07-30T01:05:34;20.00;53.50
32524;DHT22;18965;52.242;20.886;2022-07-30T01:08:32;19.90;53.50
32524;DHT22;18965;52.242;20.886;2022-07-30T01:11:01;19.90;53.70
32524;DHT22;18965;52.242;20.886;2022-07-30T01:13:27;20.00;54.30
32524;DHT22;18965;52.242;20.886;2022-07-30T01:16:02;19.90;53.70
32524;DHT22;18965;52.242;20.886;2022-07-30T01:18:44;19.90;54.00
32524;DHT22;18965;52.242;20.886;2022-07-30T01:21:48;19.90;54.10
32524;DHT22;18965;52.242;20.886;2022-07-30T01:24:32;19.80;54.30
32524;DHT22;18965;52.242;20.886;2022-07-30T01:27:17;19.80;54.70
32524;DHT22;18965;52.242;20.886;2022-07-30T01:30:03;19.70;54.50
32524;DHT22;18965;52.242;20.886;2022-07-30T01:32:53;19.70;55.00
32524;DHT22;18965;52.242;20.886;2022-07-30T01:35:32;19.70;55.10
32524;DHT22;18965;52.242;20.886;2022-07-30T01:38:21;19.60;55.10
32524;DHT22;18965;52.242;20.886;2022-07-30T01:40:52;19.60;55.90
32524;DHT22;18965;52.242;20.886;2022-07-30T01:46:50;19.50;55.40
32524;DHT22;18965;52.242;20.886;2022-07-30T01:49:25;19.50;55.70
32524;DHT22;18965;52.242;20.886;2022-07-30T01:51:53;19.50;55.80
32524;DHT22;18965;52.242;20.886;2022-07-30T01:54:26;19.50;55.80
32524;DHT22;18965;52.242;20.886;2022-07-30T01:56:55;19.50;55.90
32524;DHT22;18965;52.242;20.886;2022-07-30T01:59:25;19.50;56.00
32524;DHT22;18965;52.242;20.886;2022-07-30T02:02:01;19.50;56.00
32524;DHT22;18965;52.242;20.886;2022-07-30T02:04:27;19.50;56.20
32524;DHT22;18965;52.242;20.886;2022-07-30T02:07:12;19.50;56.20
32524;DHT22;18965;52.242;20.886;2022-07-30T02:12:56;19.50;56.60
32524;DHT22;18965;52.242;20.886;2022-07-30T02:21:06;19.50;56.80
32524;DHT22;18965;52.242;20.886;2022-07-30T02:23:47;19.50;56.90
32524;DHT22;18965;52.242;20.886;2022-07-30T02:26:28;19.50;57.00
32524;DHT22;18965;52.242;20.886;2022-07-30T02:29:11;19.50;57.50
32524;DHT22;18965;52.242;20.886;2022-07-30T02:31:38;19.50;56.90
32524;DHT22;18965;52.242;20.886;2022-07-30T02:34:15;19.50;57.00
32524;DHT22;18965;52.242;20.886;2022-07-30T02:36:42;19.50;57.20
32524;DHT22;18965;52.242;20.886;2022-07-30T02:39:09;19.50;57.10
32524;DHT22;18965;52.242;20.886;2022-07-30T02:41:37;19.50;57.40
32524;DHT22;18965;52.242;20.886;2022-07-30T02:44:07;19.50;57.20
32524;DHT22;18965;52.242;20.886;2022-07-30T02:46:37;19.50;57.30
32524;DHT22;18965;52.242;20.886;2022-07-30T02:49:05;19.40;57.40
32524;DHT22;18965;52.242;20.886;2022-07-30T02:51:40;19.40;57.40
32524;DHT22;18965;52.242;20.886;2022-07-30T02:54:21;19.40;57.70
32524;DHT22;18965;52.242;20.886;2022-07-30T02:57:00;19.40;57.70
32524;DHT22;18965;52.242;20.886;2022-07-30T02:59:55;19.40;58.40
32524;DHT22;18965;52.242;20.886;2022-07-30T03:02:26;19.40;57.90
32524;DHT22;18965;52.242;20.886;2022-07-30T03:04:55;19.40;57.80
32524;DHT22;18965;52.242;20.886;2022-07-30T03:07:26;19.30;57.80
32524;DHT22;18965;52.242;20.886;2022-07-30T03:10:13;19.30;57.90
32524;DHT22;18965;52.242;20.886;2022-07-30T03:15:46;19.30;58.10
32524;DHT22;18965;52.242;20.886;2022-07-30T03:18:38;19.30;58.20
32524;DHT22;18965;52.242;20.886;2022-07-30T03:21:22;19.30;58.20
32524;DHT22;18965;52.242;20.886;2022-07-30T03:23:52;19.30;58.40
32524;DHT22;18965;52.242;20.886;2022-07-30T03:26:26;19.30;58.40
32524;DHT22;18965;52.242;20.886;2022-07-30T03:28:57;19.30;58.50
32524;DHT22;18965;52.242;20.886;2022-07-30T03:31:23;19.30;58.50
32524;DHT22;18965;52.242;20.886;2022-07-30T03:33:52;19.30;58.50
32524;DHT22;18965;52.242;20.886;2022-07-30T03:36:28;19.30;58.60
32524;DHT22;18965;52.242;20.886;2022-07-30T03:39:01;19.40;58.70
32524;DHT22;18965;52.242;20.886;2022-07-30T03:41:34;19.30;58.70
32524;DHT22;18965;52.242;20.886;2022-07-30T03:44:00;19.40;58.80
32524;DHT22;18965;52.242;20.886;2022-07-30T03:46:36;19.30;59.20
32524;DHT22;18965;52.242;20.886;2022-07-30T03:49:21;19.20;58.90
32524;DHT22;18965;52.242;20.886;2022-07-30T03:52:00;19.20;59.00
32524;DHT22;18965;52.242;20.886;2022-07-30T03:54:39;19.20;59.30
32524;DHT22;18965;52.242;20.886;2022-07-30T03:57:24;19.20;59.10
32524;DHT22;18965;52.242;20.886;2022-07-30T03:59:53;19.20;59.20
32524;DHT22;18965;52.242;20.886;2022-07-30T04:02:22;19.20;59.20
32524;DHT22;18965;52.242;20.886;2022-07-30T04:05:00;19.20;59.30
32524;DHT22;18965;52.242;20.886;2022-07-30T04:07:25;19.20;59.50
32524;DHT22;18965;52.242;20.886;2022-07-30T04:09:51;19.20;59.40
32524;DHT22;18965;52.242;20.886;2022-07-30T04:12:35;19.20;59.40
32524;DHT22;18965;52.242;20.886;2022-07-30T04:15:24;19.30;59.60
32524;DHT22;18965;52.242;20.886;2022-07-30T04:17:55;19.30;59.40
32524;DHT22;18965;52.242;20.886;2022-07-30T04:20:26;19.30;59.50
32524;DHT22;18965;52.242;20.886;2022-07-30T04:22:54;19.30;59.50
32524;DHT22;18965;52.242;20.886;2022-07-30T04:25:37;19.40;59.60
32524;DHT22;18965;52.242;20.886;2022-07-30T04:28:06;19.50;59.70
32524;DHT22;18965;52.242;20.886;2022-07-30T04:30:54;19.50;59.60
32524;DHT22;18965;52.242;20.886;2022-07-30T04:33:20;19.60;59.50
32524;DHT22;18965;52.242;20.886;2022-07-30T04:35:46;19.60;59.50
32524;DHT22;18965;52.242;20.886;2022-07-30T04:38:12;19.70;59.50
32524;DHT22;18965;52.242;20.886;2022-07-30T04:40:51;19.70;59.40
32524;DHT22;18965;52.242;20.886;2022-07-30T04:43:26;19.80;60.00
32524;DHT22;18965;52.242;20.886;2022-07-30T04:46:01;19.80;59.30
32524;DHT22;18965;52.242;20.886;2022-07-30T04:48:37;19.80;59.10
32524;DHT22;18965;52.242;20.886;2022-07-30T04:51:05;19.80;59.10
32524;DHT22;18965;52.242;20.886;2022-07-30T04:54:04;19.80;59.00
32524;DHT22;18965;52.242;20.886;2022-07-30T04:56:36;19.80;59.00
32524;DHT22;18965;52.242;20.886;2022-07-30T04:59:44;19.90;59.00
32524;DHT22;18965;52.242;20.886;2022-07-30T05:02:11;19.90;59.20
32524;DHT22;18965;52.242;20.886;2022-07-30T05:04:45;19.90;59.10
32524;DHT22;18965;52.242;20.886;2022-07-30T05:07:26;19.90;59.10
32524;DHT22;18965;52.242;20.886;2022-07-30T05:10:02;19.90;59.00
32524;DHT22;18965;52.242;20.886;2022-07-30T05:15:23;19.90;59.10
32524;DHT22;18965;52.242;20.886;2022-07-30T05:17:49;19.80;59.00
32524;DHT22;18965;52.242;20.886;2022-07-30T05:20:16;19.80;59.10
32524;DHT22;18965;52.242;20.886;2022-07-30T05:22:48;19.80;59.30
32524;DHT22;18965;52.242;20.886;2022-07-30T05:25:23;19.80;59.30
32524;DHT22;18965;52.242;20.886;2022-07-30T05:27:48;19.80;59.40
32524;DHT22;18965;52.242;20.886;2022-07-30T05:30:27;19.80;59.40
32524;DHT22;18965;52.242;20.886;2022-07-30T05:32:53;19.80;59.50
32524;DHT22;18965;52.242;20.886;2022-07-30T05:35:35;19.80;59.50
32524;DHT22;18965;52.242;20.886;2022-07-30T05:41:27;19.70;59.80
32524;DHT22;18965;52.242;20.886;2022-07-30T05:44:03;19.70;59.90
32524;DHT22;18965;52.242;20.886;2022-07-30T05:46:32;19.70;60.00
32524;DHT22;18965;52.242;20.886;2022-07-30T05:49:04;19.60;60.00
32524;DHT22;18965;52.242;20.886;2022-07-30T05:51:38;19.60;60.00
32524;DHT22;18965;52.242;20.886;2022-07-30T05:54:17;19.60;60.30
32524;DHT22;18965;52.242;20.886;2022-07-30T05:56:45;19.50;60.60
32524;DHT22;18965;52.242;20.886;2022-07-30T05:59:20;19.50;60.60
32524;DHT22;18965;52.242;20.886;2022-07-30T06:01:46;19.50;61.00
32524;DHT22;18965;52.242;20.886;2022-07-30T06:04:12;19.50;61.10
32524;DHT22;18965;52.242;20.886;2022-07-30T06:07:01;19.50;61.40
32524;DHT22;18965;52.242;20.886;2022-07-30T06:09:27;19.50;61.70
32524;DHT22;18965;52.242;20.886;2022-07-30T06:11:52;19.50;61.60
32524;DHT22;18965;52.242;20.886;2022-07-30T06:14:33;19.50;61.80
32524;DHT22;18965;52.242;20.886;2022-07-30T06:16:58;19.70;62.00
32524;DHT22;18965;52.242;20.886;2022-07-30T06:19:25;19.60;62.10
32524;DHT22;18965;52.242;20.886;2022-07-30T06:21:53;19.60;61.90
32524;DHT22;18965;52.242;20.886;2022-07-30T06:24:19;19.70;62.10
32524;DHT22;18965;52.242;20.886;2022-07-30T06:26:45;19.70;62.00
32524;DHT22;18965;52.242;20.886;2022-07-30T06:29:13;19.80;62.00
32524;DHT22;18965;52.242;20.886;2022-07-30T06:31:43;19.80;62.10
32524;DHT22;18965;52.242;20.886;2022-07-30T06:34:12;19.80;62.00
32524;DHT22;18965;52.242;20.886;2022-07-30T06:36:37;19.80;62.20
32524;DHT22;18965;52.242;20.886;2022-07-30T06:39:03;19.80;62.30
32524;DHT22;18965;52.242;20.886;2022-07-30T06:41:29;19.80;62.70
32524;DHT22;18965;52.242;20.886;2022-07-30T06:43:55;19.80;63.00
32524;DHT22;18965;52.242;20.886;2022-07-30T06:46:24;19.80;63.10
32524;DHT22;18965;52.242;20.886;2022-07-30T06:48:52;19.80;62.90
32524;DHT22;18965;52.242;20.886;2022-07-30T06:51:24;19.80;62.90
32524;DHT22;18965;52.242;20.886;2022-07-30T06:53:50;19.80;63.00
32524;DHT22;18965;52.242;20.886;2022-07-30T06:56:28;19.80;62.90
32524;DHT22;18965;52.242;20.886;2022-07-30T06:58:59;19.90;63.20
32524;DHT22;18965;52.242;20.886;2022-07-30T07:01:25;19.90;63.80
32524;DHT22;18965;52.242;20.886;2022-07-30T07:03:51;19.90;63.10
32524;DHT22;18965;52.242;20.886;2022-07-30T07:06:17;19.90;63.20
32524;DHT22;18965;52.242;20.886;2022-07-30T07:08:43;19.90;63.00
32524;DHT22;18965;52.242;20.886;2022-07-30T07:11:11;19.90;62.90
32524;DHT22;18965;52.242;20.886;2022-07-30T07:13:37;19.90;63.00
32524;DHT22;18965;52.242;20.886;2022-07-30T07:16:05;20.00;62.90
32524;DHT22;18965;52.242;20.886;2022-07-30T07:18:33;20.10;62.80
32524;DHT22;18965;52.242;20.886;2022-07-30T07:21:01;20.10;62.60
32524;DHT22;18965;52.242;20.886;2022-07-30T07:23:27;20.20;62.40
32524;DHT22;18965;52.242;20.886;2022-07-30T07:26:15;20.20;62.30
32524;DHT22;18965;52.242;20.886;2022-07-30T07:28:43;20.10;62.20
32524;DHT22;18965;52.242;20.886;2022-07-30T07:31:12;20.20;62.10
32524;DHT22;18965;52.242;20.886;2022-07-30T07:33:38;20.10;62.10
32524;DHT22;18965;52.242;20.886;2022-07-30T07:36:07;20.10;62.20
32524;DHT22;18965;52.242;20.886;2022-07-30T07:38:33;20.10;62.20
32524;DHT22;18965;52.242;20.886;2022-07-30T07:40:59;20.20;62.20
32524;DHT22;18965;52.242;20.886;2022-07-30T07:43:43;20.30;62.40
32524;DHT22;18965;52.242;20.886;2022-07-30T07:46:09;20.40;62.40
32524;DHT22;18965;52.242;20.886;2022-07-30T07:48:45;20.50;62.20
32524;DHT22;18965;52.242;20.886;2022-07-30T07:51:19;20.70;62.10
32524;DHT22;18965;52.242;20.886;2022-07-30T07:53:45;20.80;61.70
32524;DHT22;18965;52.242;20.886;2022-07-30T07:56:18;20.90;61.40
32524;DHT22;18965;52.242;20.886;2022-07-30T07:58:49;21.00;61.20
32524;DHT22;18965;52.242;20.886;2022-07-30T08:01:19;21.20;61.10
32524;DHT22;18965;52.242;20.886;2022-07-30T08:03:46;21.30;61.00
32524;DHT22;18965;52.242;20.886;2022-07-30T08:06:12;21.40;61.00
32524;DHT22;18965;52.242;20.886;2022-07-30T08:08:38;21.70;60.70
32524;DHT22;18965;52.242;20.886;2022-07-30T08:11:04;21.80;60.30
32524;DHT22;18965;52.242;20.886;2022-07-30T08:13:31;22.00;60.00
32524;DHT22;18965;52.242;20.886;2022-07-30T08:15:58;22.10;59.50
32524;DHT22;18965;52.242;20.886;2022-07-30T08:18:24;22.20;59.20
32524;DHT22;18965;52.242;20.886;2022-07-30T08:20:50;22.30;59.30
32524;DHT22;18965;52.242;20.886;2022-07-30T08:23:16;22.40;59.30
32524;DHT22;18965;52.242;20.886;2022-07-30T08:25:47;22.60;59.20
32524;DHT22;18965;52.242;20.886;2022-07-30T08:28:13;22.70;58.70
32524;DHT22;18965;52.242;20.886;2022-07-30T08:30:39;22.80;58.40
32524;DHT22;18965;52.242;20.886;2022-07-30T08:33:04;22.90;58.30
32524;DHT22;18965;52.242;20.886;2022-07-30T08:35:30;23.00;58.70
32524;DHT22;18965;52.242;20.886;2022-07-30T08:37:56;23.10;58.10
32524;DHT22;18965;52.242;20.886;2022-07-30T08:40:25;23.30;57.90
32524;DHT22;18965;52.242;20.886;2022-07-30T08:42:52;23.40;57.60
32524;DHT22;18965;52.242;20.886;2022-07-30T08:45:18;23.40;57.10
32524;DHT22;18965;52.242;20.886;2022-07-30T08:47:45;23.40;57.10
32524;DHT22;18965;52.242;20.886;2022-07-30T08:50:12;23.50;57.20
32524;DHT22;18965;52.242;20.886;2022-07-30T08:52:39;23.60;57.10
32524;DHT22;18965;52.242;20.886;2022-07-30T08:55:09;23.60;56.80
32524;DHT22;18965;52.242;20.886;2022-07-30T08:57:36;23.60;57.40
32524;DHT22;18965;52.242;20.886;2022-07-30T09:00:04;23.70;56.70
32524;DHT22;18965;52.242;20.886;2022-07-30T09:02:31;23.70;56.40
32524;DHT22;18965;52.242;20.886;2022-07-30T09:04:57;23.80;56.30
32524;DHT22;18965;52.242;20.886;2022-07-30T09:07:23;23.90;56.40
32524;DHT22;18965;52.242;20.886;2022-07-30T09:09:49;24.00;56.00
32524;DHT22;18965;52.242;20.886;2022-07-30T09:12:31;24.10;56.10
32524;DHT22;18965;52.242;20.886;2022-07-30T09:15:17;24.20;55.90
32524;DHT22;18965;52.242;20.886;2022-07-30T09:18:02;24.40;55.80
32524;DHT22;18965;52.242;20.886;2022-07-30T09:20:37;24.50;55.80
32524;DHT22;18965;52.242;20.886;2022-07-30T09:23:05;24.60;55.60
32524;DHT22;18965;52.242;20.886;2022-07-30T09:25:53;24.60;55.10
32524;DHT22;18965;52.242;20.886;2022-07-30T09:28:31;24.70;55.20
32524;DHT22;18965;52.242;20.886;2022-07-30T09:31:03;24.80;55.10
32524;DHT22;18965;52.242;20.886;2022-07-30T09:33:40;24.90;54.50
32524;DHT22;18965;52.242;20.886;2022-07-30T09:36:09;25.00;53.90
32524;DHT22;18965;52.242;20.886;2022-07-30T09:38:48;25.00;54.20
32524;DHT22;18965;52.242;20.886;2022-07-30T09:41:18;24.90;54.00
32524;DHT22;18965;52.242;20.886;2022-07-30T09:44:09;24.90;54.10
32524;DHT22;18965;52.242;20.886;2022-07-30T09:46:52;24.90;54.30
32524;DHT22;18965;52.242;20.886;2022-07-30T09:49:22;24.90;54.40
32524;DHT22;18965;52.242;20.886;2022-07-30T09:51:49;24.80;54.30
32524;DHT22;18965;52.242;20.886;2022-07-30T09:54:16;24.80;54.40
32524;DHT22;18965;52.242;20.886;2022-07-30T09:56:42;24.70;54.80
32524;DHT22;18965;52.242;20.886;2022-07-30T09:59:37;24.70;54.70
32524;DHT22;18965;52.242;20.886;2022-07-30T10:02:03;24.60;55.10
32524;DHT22;18965;52.242;20.886;2022-07-30T10:04:31;24.60;55.20
32524;DHT22;18965;52.242;20.886;2022-07-30T10:06:59;24.50;54.90
32524;DHT22;18965;52.242;20.886;2022-07-30T10:09:43;24.50;55.10
32524;DHT22;18965;52.242;20.886;2022-07-30T10:12:15;24.50;55.40
32524;DHT22;18965;52.242;20.886;2022-07-30T10:14:45;24.50;55.40
32524;DHT22;18965;52.242;20.886;2022-07-30T10:17:11;24.50;55.40
32524;DHT22;18965;52.242;20.886;2022-07-30T10:19:38;24.40;55.20
32524;DHT22;18965;52.242;20.886;2022-07-30T10:22:05;24.50;55.20
32524;DHT22;18965;52.242;20.886;2022-07-30T10:24:31;24.40;55.10
32524;DHT22;18965;52.242;20.886;2022-07-30T10:27:00;24.30;55.00
32524;DHT22;18965;52.242;20.886;2022-07-30T10:29:29;24.30;55.30
32524;DHT22;18965;52.242;20.886;2022-07-30T10:31:59;24.20;55.30
32524;DHT22;18965;52.242;20.886;2022-07-30T10:34:28;24.10;55.40
32524;DHT22;18965;52.242;20.886;2022-07-30T10:37:00;24.10;55.80
32524;DHT22;18965;52.242;20.886;2022-07-30T10:39:31;24.00;56.00
32524;DHT22;18965;52.242;20.886;2022-07-30T10:47:28;23.90;56.90
32524;DHT22;18965;52.242;20.886;2022-07-30T10:50:09;23.90;57.00
32524;DHT22;18965;52.242;20.886;2022-07-30T10:55:25;23.80;57.50
32524;DHT22;18965;52.242;20.886;2022-07-30T10:57:59;23.90;57.70
32524;DHT22;18965;52.242;20.886;2022-07-30T11:00:26;23.90;57.40
32524;DHT22;18965;52.242;20.886;2022-07-30T11:03:40;23.90;57.40
32524;DHT22;18965;52.242;20.886;2022-07-30T11:08:50;24.00;57.90
32524;DHT22;18965;52.242;20.886;2022-07-30T11:16:22;24.10;57.10
32524;DHT22;18965;52.242;20.886;2022-07-30T11:25:02;23.90;56.90
32524;DHT22;18965;52.242;20.886;2022-07-30T11:27:38;23.80;57.70
32524;DHT22;18965;52.242;20.886;2022-07-30T11:35:30;23.50;59.60
32524;DHT22;18965;52.242;20.886;2022-07-30T11:43:17;23.20;61.30
32524;DHT22;18965;52.242;20.886;2022-07-30T11:45:45;23.00;62.30
32524;DHT22;18965;52.242;20.886;2022-07-30T11:48:17;22.80;62.40
32524;DHT22;18965;52.242;20.886;2022-07-30T11:50:44;22.60;63.10
32524;DHT22;18965;52.242;20.886;2022-07-30T11:53:16;22.50;63.60
32524;DHT22;18965;52.242;20.886;2022-07-30T11:55:54;22.40;64.50
32524;DHT22;18965;52.242;20.886;2022-07-30T11:58:27;22.20;65.60
32524;DHT22;18965;52.242;20.886;2022-07-30T12:00:55;22.10;65.90
32524;DHT22;18965;52.242;20.886;2022-07-30T12:03:22;22.00;66.70
32524;DHT22;18965;52.242;20.886;2022-07-30T12:05:50;21.90;67.60
32524;DHT22;18965;52.242;20.886;2022-07-30T12:08:16;21.70;67.60
32524;DHT22;18965;52.242;20.886;2022-07-30T12:10:53;21.70;68.90
32524;DHT22;18965;52.242;20.886;2022-07-30T12:13:19;21.70;68.80
32524;DHT22;18965;52.242;20.886;2022-07-30T12:15:46;21.60;68.90
32524;DHT22;18965;52.242;20.886;2022-07-30T12:18:13;21.60;69.50
32524;DHT22;18965;52.242;20.886;2022-07-30T12:20:59;21.50;69.70
32524;DHT22;18965;52.242;20.886;2022-07-30T12:23:26;21.50;70.00
32524;DHT22;18965;52.242;20.886;2022-07-30T12:25:52;21.50;70.20
32524;DHT22;18965;52.242;20.886;2022-07-30T12:28:22;21.50;70.10
32524;DHT22;18965;52.242;20.886;2022-07-30T12:30:54;21.50;70.60
32524;DHT22;18965;52.242;20.886;2022-07-30T12:33:20;21.50;70.40
32524;DHT22;18965;52.242;20.886;2022-07-30T12:35:54;21.50;70.60
32524;DHT22;18965;52.242;20.886;2022-07-30T12:38:21;21.50;70.60
32524;DHT22;18965;52.242;20.886;2022-07-30T12:41:02;21.60;70.70
32524;DHT22;18965;52.242;20.886;2022-07-30T12:43:56;21.60;71.10
32524;DHT22;18965;52.242;20.886;2022-07-30T12:46:26;21.60;71.20
32524;DHT22;18965;52.242;20.886;2022-07-30T12:51:30;21.50;71.30
32524;DHT22;18965;52.242;20.886;2022-07-30T12:54:20;21.50;71.30
32524;DHT22;18965;52.242;20.886;2022-07-30T12:56:59;21.40;71.50
32524;DHT22;18965;52.242;20.886;2022-07-30T12:59:25;21.40;71.90
32524;DHT22;18965;52.242;20.886;2022-07-30T13:01:51;21.30;71.70
32524;DHT22;18965;52.242;20.886;2022-07-30T13:04:18;21.30;71.80
32524;DHT22;18965;52.242;20.886;2022-07-30T13:07:11;21.20;71.70
32524;DHT22;18965;52.242;20.886;2022-07-30T13:09:39;21.20;72.10
32524;DHT22;18965;52.242;20.886;2022-07-30T13:12:05;21.20;72.10
32524;DHT22;18965;52.242;20.886;2022-07-30T13:14:32;21.10;72.20
32524;DHT22;18965;52.242;20.886;2022-07-30T13:16:58;21.10;72.20
32524;DHT22;18965;52.242;20.886;2022-07-30T13:19:24;21.10;72.20
32524;DHT22;18965;52.242;20.886;2022-07-30T13:21:53;21.10;72.20
32524;DHT22;18965;52.242;20.886;2022-07-30T13:24:22;21.10;72.40
32524;DHT22;18965;52.242;20.886;2022-07-30T13:30:10;21.10;72.40
32524;DHT22;18965;52.242;20.886;2022-07-30T13:32:36;21.10;72.80
32524;DHT22;18965;52.242;20.886;2022-07-30T13:35:02;21.10;72.60
32524;DHT22;18965;52.242;20.886;2022-07-30T13:37:28;21.10;72.50
32524;DHT22;18965;52.242;20.886;2022-07-30T13:39:54;21.00;72.50
32524;DHT22;18965;52.242;20.886;2022-07-30T13:42:20;21.00;72.40
32524;DHT22;18965;52.242;20.886;2022-07-30T13:44:46;21.00;72.50
32524;DHT22;18965;52.242;20.886;2022-07-30T13:47:15;21.10;72.80
32524;DHT22;18965;52.242;20.886;2022-07-30T13:49:41;21.10;73.00
32524;DHT22;18965;52.242;20.886;2022-07-30T13:52:10;21.10;73.00
32524;DHT22;18965;52.242;20.886;2022-07-30T13:54:39;21.10;73.20
32524;DHT22;18965;52.242;20.886;2022-07-30T13:57:05;21.10;73.40
32524;DHT22;18965;52.242;20.886;2022-07-30T13:59:31;21.00;73.60
32524;DHT22;18965;52.242;20.886;2022-07-30T14:01:56;20.90;73.80
32524;DHT22;18965;52.242;20.886;2022-07-30T14:04:22;20.80;73.90
32524;DHT22;18965;52.242;20.886;2022-07-30T14:06:48;20.70;74.40
32524;DHT22;18965;52.242;20.886;2022-07-30T14:09:14;20.60;74.70
32524;DHT22;18965;52.242;20.886;2022-07-30T14:11:41;20.50;75.20
32524;DHT22;18965;52.242;20.886;2022-07-30T14:14:07;20.40;75.70
32524;DHT22;18965;52.242;20.886;2022-07-30T14:16:33;20.40;76.20
32524;DHT22;18965;52.242;20.886;2022-07-30T14:18:58;20.30;76.50
32524;DHT22;18965;52.242;20.886;2022-07-30T14:21:24;20.20;77.10
32524;DHT22;18965;52.242;20.886;2022-07-30T14:23:50;20.20;77.30
32524;DHT22;18965;52.242;20.886;2022-07-30T14:26:16;20.00;77.40
32524;DHT22;18965;52.242;20.886;2022-07-30T14:28:41;20.00;77.70
32524;DHT22;18965;52.242;20.886;2022-07-30T14:31:07;19.90;78.00
32524;DHT22;18965;52.242;20.886;2022-07-30T14:33:33;19.80;78.30
32524;DHT22;18965;52.242;20.886;2022-07-30T14:36:00;19.70;78.80
32524;DHT22;18965;52.242;20.886;2022-07-30T14:38:26;19.70;79.40
32524;DHT22;18965;52.242;20.886;2022-07-30T14:40:51;19.60;79.70
32524;DHT22;18965;52.242;20.886;2022-07-30T14:43:17;19.60;79.90
32524;DHT22;18965;52.242;20.886;2022-07-30T14:45:44;19.50;80.40
32524;DHT22;18965;52.242;20.886;2022-07-30T14:48:09;19.50;80.50
32524;DHT22;18965;52.242;20.886;2022-07-30T14:50:35;19.50;80.70
32524;DHT22;18965;52.242;20.886;2022-07-30T14:53:02;19.50;80.90
32524;DHT22;18965;52.242;20.886;2022-07-30T14:55:27;19.40;81.00
32524;DHT22;18965;52.242;20.886;2022-07-30T14:57:53;19.50;81.20
32524;DHT22;18965;52.242;20.886;2022-07-30T15:00:19;19.40;81.20
32524;DHT22;18965;52.242;20.886;2022-07-30T15:02:45;19.50;81.30
32524;DHT22;18965;52.242;20.886;2022-07-30T15:05:10;19.50;81.30
32524;DHT22;18965;52.242;20.886;2022-07-30T15:07:36;19.50;81.50
32524;DHT22;18965;52.242;20.886;2022-07-30T15:10:03;19.50;81.40
32524;DHT22;18965;52.242;20.886;2022-07-30T15:12:34;19.50;81.60
32524;DHT22;18965;52.242;20.886;2022-07-30T15:15:00;19.50;81.80
32524;DHT22;18965;52.242;20.886;2022-07-30T15:17:25;19.60;81.70
32524;DHT22;18965;52.242;20.886;2022-07-30T15:19:51;19.60;81.80
32524;DHT22;18965;52.242;20.886;2022-07-30T15:22:18;19.60;81.70
32524;DHT22;18965;52.242;20.886;2022-07-30T15:24:44;19.60;81.70
32524;DHT22;18965;52.242;20.886;2022-07-30T15:27:10;19.70;81.70
32524;DHT22;18965;52.242;20.886;2022-07-30T15:29:35;19.70;81.60
32524;DHT22;18965;52.242;20.886;2022-07-30T15:32:04;19.70;81.60
32524;DHT22;18965;52.242;20.886;2022-07-30T15:34:31;19.80;81.60
32524;DHT22;18965;52.242;20.886;2022-07-30T15:36:59;19.80;81.40
32524;DHT22;18965;52.242;20.886;2022-07-30T15:39:25;19.80;81.10
32524;DHT22;18965;52.242;20.886;2022-07-30T15:41:54;19.80;81.00
32524;DHT22;18965;52.242;20.886;2022-07-30T15:44:21;19.90;81.10
32524;DHT22;18965;52.242;20.886;2022-07-30T15:46:47;19.90;80.80
32524;DHT22;18965;52.242;20.886;2022-07-30T15:49:12;19.90;80.80
32524;DHT22;18965;52.242;20.886;2022-07-30T15:51:38;19.80;80.70
32524;DHT22;18965;52.242;20.886;2022-07-30T15:54:12;19.80;80.60
32524;DHT22;18965;52.242;20.886;2022-07-30T15:56:38;19.80;80.50
32524;DHT22;18965;52.242;20.886;2022-07-30T15:59:05;19.80;80.60
32524;DHT22;18965;52.242;20.886;2022-07-30T16:01:32;19.80;80.50
32524;DHT22;18965;52.242;20.886;2022-07-30T16:04:00;19.80;80.30
32524;DHT22;18965;52.242;20.886;2022-07-30T16:06:26;19.80;80.30
32524;DHT22;18965;52.242;20.886;2022-07-30T16:08:51;19.80;80.30
32524;DHT22;18965;52.242;20.886;2022-07-30T16:11:17;19.80;80.10
32524;DHT22;18965;52.242;20.886;2022-07-30T16:13:43;19.80;80.00
32524;DHT22;18965;52.242;20.886;2022-07-30T16:16:09;19.90;79.90
32524;DHT22;18965;52.242;20.886;2022-07-30T16:18:35;19.90;79.80
32524;DHT22;18965;52.242;20.886;2022-07-30T16:21:00;19.90;79.60
32524;DHT22;18965;52.242;20.886;2022-07-30T16:23:27;19.90;80.00
32524;DHT22;18965;52.242;20.886;2022-07-30T16:25:53;19.90;79.30
32524;DHT22;18965;52.242;20.886;2022-07-30T16:28:18;19.80;79.10
32524;DHT22;18965;52.242;20.886;2022-07-30T16:30:44;19.90;79.00
32524;DHT22;18965;52.242;20.886;2022-07-30T16:33:11;20.00;78.90
32524;DHT22;18965;52.242;20.886;2022-07-30T16:35:37;20.00;78.70
32524;DHT22;18965;52.242;20.886;2022-07-30T16:38:03;20.00;78.50
32524;DHT22;18965;52.242;20.886;2022-07-30T16:40:29;20.00;78.40
32524;DHT22;18965;52.242;20.886;2022-07-30T16:42:56;20.00;78.30
32524;DHT22;18965;52.242;20.886;2022-07-30T16:45:24;20.00;78.10
32524;DHT22;18965;52.242;20.886;2022-07-30T16:47:53;20.00;78.10
32524;DHT22;18965;52.242;20.886;2022-07-30T16:50:19;20.00;77.90